Time;durP1;ratioP1;P1;durP2;ratioP2;P2;SDS_P1;SDS_P2;PMS_P1;PMS_P2;Temp;Humidity;BMP_temperature;BMP_pressure;BME280_temperature;BME280_humidity;BME280_pressure;Samples;Min_cycle;Max_cycle;Signal;HPM_P1;HPM_P2
2022/11/08 00:01:34;;;;;;;13.10;3.50;;;;;;;;;;5089364;28;20429;-76
2022/11/08 00:04:01;;;;;;;13.20;3.50;;;;;;;;;;5082960;28;20448;-76
2022/11/08 00:14:41;;;;;;;12.80;3.10;;;;;;;;;;5085956;28;20455;-76
2022/11/08 00:17:07;;;;;;;11.17;3.50;;;;;;;;;;5089259;28;20504;-76
2022/11/08 00:19:34;;;;;;;15.38;4.10;;;;;;;;;;5088874;28;20413;-76
2022/11/08 00:22:00;;;;;;;12.93;3.45;;;;;;;;;;5056236;28;20409;-77
2022/11/08 00:24:25;;;;;;;11.93;3.37;;;13.30;99.90;;;;;;5081381;28;20484;-76
2022/11/08 00:26:51;;;;;;;9.60;3.10;;;;;;;;;;5086937;28;20414;-76
2022/11/08 00:29:17;;;;;;;12.50;4.27;;;13.30;99.90;;;;;;5071486;28;20411;-76
2022/11/08 00:31:45;;;;;;;13.33;3.50;;;;;;;;;;5036485;28;20406;-76
2022/11/08 00:34:11;;;;;;;11.73;3.70;;;;;;;;;;5083398;28;20429;-76
2022/11/08 00:36:37;;;;;;;12.00;3.60;;;13.20;99.90;;;;;;5089339;28;20512;-76
2022/11/08 00:39:03;;;;;;;14.48;4.00;;;;;;;;;;5083784;28;20505;-76
2022/11/08 00:41:29;;;;;;;13.75;3.95;;;;;;;;;;5090283;28;20401;-76
2022/11/08 00:43:55;;;;;;;12.82;3.47;;;;;;;;;;5086856;28;20422;-76
2022/11/08 00:46:21;;;;;;;13.15;3.63;;;13.40;99.90;;;;;;5073153;28;20402;-76
2022/11/08 00:48:47;;;;;;;10.95;3.35;;;;;;;;;;5071318;28;20413;-76
2022/11/08 00:51:13;;;;;;;11.68;3.33;;;;;;;;;;5074209;28;20475;-77
2022/11/08 00:53:39;;;;;;;12.40;3.47;;;;;;;;;;5085890;28;20420;-77
2022/11/08 00:56:07;;;;;;;13.32;3.17;;;;;;;;;;5072127;28;20403;-77
2022/11/08 00:58:34;;;;;;;11.98;3.40;;;;;;;;;;5079088;28;20487;-77
2022/11/08 01:00:59;;;;;;;13.88;3.55;;;13.00;99.90;;;;;;5085089;28;20434;-77
2022/11/08 01:03:26;;;;;;;12.20;3.70;;;;;;;;;;5068312;28;20427;-77
2022/11/08 01:05:53;;;;;;;16.88;3.45;;;;;;;;;;5090978;28;20647;-77
2022/11/08 01:08:21;;;;;;;10.53;3.57;;;13.10;99.90;;;;;;5077779;28;20426;-77
2022/11/08 01:10:49;;;;;;;12.57;3.40;;;12.90;99.90;;;;;;5091811;28;20560;-77
2022/11/08 01:13:16;;;;;;;12.88;3.65;;;;;;;;;;5090180;28;20460;-77
2022/11/08 01:15:43;;;;;;;12.93;3.50;;;13.10;99.90;;;;;;5074817;28;20428;-77
2022/11/08 01:18:10;;;;;;;11.88;3.17;;;;;;;;;;5091162;28;20401;-77
2022/11/08 01:20:40;;;;;;;11.88;3.35;;;;;;;;;;5087678;28;20423;-77
2022/11/08 01:23:06;;;;;;;12.38;3.47;;;13.10;99.90;;;;;;5089967;28;20425;-76
2022/11/08 01:25:36;;;;;;;14.32;3.75;;;12.90;99.90;;;;;;5088618;28;20418;-77
2022/11/08 01:28:02;;;;;;;10.07;3.10;;;;;;;;;;5076751;28;20404;-77
2022/11/08 01:30:28;;;;;;;16.95;3.50;;;;;;;;;;5089675;28;20433;-77
2022/11/08 01:32:54;;;;;;;11.10;3.38;;;;;;;;;;5090337;28;21015;-77
2022/11/08 01:35:20;;;;;;;10.80;3.10;;;;;;;;;;5068890;28;20767;-77
2022/11/08 01:37:46;;;;;;;12.00;3.33;;;;;;;;;;5062680;28;20480;-77
2022/11/08 01:40:13;;;;;;;11.10;3.45;;;;;;;;;;5090447;28;20421;-76
2022/11/08 01:42:39;;;;;;;12.97;3.47;;;;;;;;;;5091617;28;20421;-77
2022/11/08 01:45:07;;;;;;;11.55;3.70;;;12.30;99.90;;;;;;5089658;28;20935;-76
2022/11/08 01:47:33;;;;;;;12.77;3.58;;;;;;;;;;5075280;28;20492;-77
2022/11/08 01:50:05;;;;;;;10.90;3.15;;;;;;;;;;5073871;28;20426;-77
2022/11/08 01:52:52;;;;;;;12.03;3.40;;;;;;;;;;5091808;28;20421;-77
2022/11/08 01:55:30;;;;;;;12.63;3.45;;;;;;;;;;5091889;28;20463;-77
2022/11/08 01:57:59;;;;;;;10.63;3.20;;;;;;;;;;5075568;28;20428;-77
2022/11/08 02:00:26;;;;;;;13.43;3.20;;;;;;;;;;5070399;28;20416;-77
2022/11/08 02:02:59;;;;;;;11.23;3.28;;;12.40;99.90;;;;;;5079673;28;20552;-76
2022/11/08 02:05:28;;;;;;;11.10;3.10;;;12.70;99.90;;;;;;5084868;28;20429;-77
2022/11/08 02:08:05;;;;;;;11.37;3.40;;;12.60;99.90;;;;;;5076957;28;20483;-77
2022/11/08 02:10:36;;;;;;;12.40;3.57;;;12.60;99.90;;;;;;5089325;28;20496;-77
2022/11/08 02:13:03;;;;;;;11.57;3.47;;;12.70;99.90;;;;;;5094468;28;20423;-77
2022/11/08 02:15:29;;;;;;;12.82;3.20;;;;;;;;;;5093712;28;20414;-77
2022/11/08 02:17:56;;;;;;;12.15;3.08;;;;;;;;;;5075464;28;20440;-77
2022/11/08 02:20:22;;;;;;;11.55;3.78;;;;;;;;;;5060417;28;20416;-77
2022/11/08 02:22:59;;;;;;;13.30;3.40;;;12.10;99.90;;;;;;5060221;28;20415;-77
2022/11/08 02:25:26;;;;;;;13.73;3.10;;;;;;;;;;5088190;28;20967;-77
2022/11/08 02:27:52;;;;;;;10.40;3.20;;;;;;;;;;5073153;28;20714;-77
2022/11/08 02:30:18;;;;;;;9.63;3.20;;;;;;;;;;5077786;28;20420;-77
2022/11/08 02:32:46;;;;;;;10.10;3.00;;;;;;;;;;5077312;28;20416;-76
2022/11/08 02:35:17;;;;;;;10.43;2.97;;;12.10;99.90;;;;;;5076634;28;20985;-77
2022/11/08 02:37:43;;;;;;;14.60;3.70;;;;;;;;;;5076204;28;20940;-77
2022/11/08 02:40:09;;;;;;;12.60;3.47;;;;;;;;;;5090880;28;20497;-77
2022/11/08 02:42:37;;;;;;;11.50;3.38;;;12.10;99.90;;;;;;5091403;28;20928;-77
2022/11/08 02:45:05;;;;;;;10.52;3.03;;;12.10;99.90;;;;;;5091655;28;20412;-77
2022/11/08 02:47:31;;;;;;;10.48;3.20;;;;;;;;;;5086907;28;20412;-77
2022/11/08 02:49:57;;;;;;;13.73;3.30;;;;;;;;;;5094448;28;20407;-77
2022/11/08 02:52:23;;;;;;;12.40;3.60;;;;;;;;;;5074581;28;21917;-77
2022/11/08 02:54:49;;;;;;;10.55;3.70;;;;;;;;;;5095084;28;20400;-77
2022/11/08 02:57:15;;;;;;;13.32;3.38;;;;;;;;;;5092616;28;20480;-77
2022/11/08 02:59:41;;;;;;;14.00;3.45;;;;;;;;;;5076481;28;20418;-77
2022/11/08 03:02:07;;;;;;;12.65;4.00;;;;;;;;;;5076089;28;20764;-77
2022/11/08 03:04:34;;;;;;;11.43;3.63;;;;;;;;;;5092638;28;20443;-77
2022/11/08 03:07:00;;;;;;;10.48;3.15;;;;;;;;;;5092557;28;20995;-77
2022/11/08 03:09:26;;;;;;;14.55;3.65;;;;;;;;;;5073188;28;20498;-77
2022/11/08 03:11:52;;;;;;;10.50;3.30;;;;;;;;;;5084950;28;20776;-77
2022/11/08 03:14:18;;;;;;;15.05;3.50;;;;;;;;;;5090498;28;20473;-77
2022/11/08 03:16:44;;;;;;;11.40;3.70;;;;;;;;;;5059341;28;20420;-77
2022/11/08 03:19:11;;;;;;;11.55;3.78;;;11.70;99.90;;;;;;5091502;28;20449;-77
2022/11/08 03:21:37;;;;;;;11.60;3.65;;;;;;;;;;5076362;28;20488;-77
2022/11/08 03:24:06;;;;;;;13.27;3.40;;;;;;;;;;5056126;28;20483;-77
2022/11/08 03:26:32;;;;;;;12.73;3.83;;;;;;;;;;5080538;28;20412;-77
2022/11/08 03:28:58;;;;;;;13.10;3.50;;;;;;;;;;5091788;28;20492;-77
2022/11/08 03:31:24;;;;;;;11.55;3.42;;;11.60;99.90;;;;;;5086790;28;20481;-77
2022/11/08 03:33:50;;;;;;;11.67;3.80;;;;;;;;;;5088712;28;20426;-77
2022/11/08 03:36:16;;;;;;;11.52;3.80;;;;;;;;;;5108196;28;20422;-77
2022/11/08 03:38:42;;;;;;;13.10;3.72;;;;;;;;;;5094057;28;20929;-77
2022/11/08 03:41:08;;;;;;;11.88;3.65;;;;;;;;;;5091318;28;20427;-77
2022/11/08 03:43:34;;;;;;;13.90;4.00;;;;;;;;;;5075462;28;20420;-77
2022/11/08 03:46:00;;;;;;;11.32;3.65;;;;;;;;;;5093311;28;20475;-76
2022/11/08 03:48:26;;;;;;;13.38;3.47;;;;;;;;;;5089643;28;20412;-76
2022/11/08 03:50:52;;;;;;;11.23;3.60;;;;;;;;;;5092796;28;20958;-77
2022/11/08 03:53:18;;;;;;;8.38;3.38;;;;;;;;;;5091468;28;20487;-77
2022/11/08 03:55:44;;;;;;;9.90;3.50;;;;;;;;;;5092799;28;20403;-77
2022/11/08 03:58:11;;;;;;;10.52;3.78;;;;;;;;;;5075880;28;20408;-77
2022/11/08 04:00:37;;;;;;;13.13;3.92;;;;;;;;;;5092713;28;20462;-76
2022/11/08 04:03:03;;;;;;;10.13;3.20;;;11.50;99.90;;;;;;5075751;28;21482;-76
2022/11/08 04:05:31;;;;;;;12.48;3.72;;;;;;;;;;5091245;28;20903;-77
2022/11/08 04:07:57;;;;;;;10.68;3.30;;;;;;;;;;5090341;28;20416;-76
2022/11/08 04:10:23;;;;;;;12.93;3.38;;;;;;;;;;5090904;28;20431;-76
2022/11/08 04:15:34;;;;;;;13.20;3.55;;;;;;;;;;5073200;28;20898;-76
2022/11/08 04:23:32;;;;;;;10.70;4.10;;;11.40;99.90;;;;;;5087008;28;20412;-76
2022/11/08 04:26:02;;;;;;;12.65;4.00;;;;;;;;;;5076094;28;20416;-76
2022/11/08 04:28:29;;;;;;;11.65;3.80;;;;;;;;;;5077588;28;20796;-76
2022/11/08 04:30:57;;;;;;;11.27;4.00;;;11.20;99.90;;;;;;5079877;28;20588;-76
2022/11/08 04:33:23;;;;;;;8.98;3.33;;;;;;;;;;5095020;28;20423;-76
2022/11/08 04:35:51;;;;;;;14.10;3.80;;;10.90;99.90;;;;;;5080892;28;20435;-77
2022/11/08 04:38:17;;;;;;;12.35;3.88;;;;;;;;;;5095080;28;20447;-76
2022/11/08 04:40:43;;;;;;;12.20;3.75;;;;;;;;;;5111914;28;20498;-76
2022/11/08 04:43:09;;;;;;;10.63;3.77;;;11.20;99.90;;;;;;5093293;28;20412;-76
2022/11/08 04:45:35;;;;;;;13.15;3.75;;;;;;;;;;5097297;28;20920;-76
2022/11/08 04:48:01;;;;;;;11.77;3.78;;;;;;;;;;5095012;28;20416;-76
2022/11/08 04:50:27;;;;;;;12.35;3.88;;;;;;;;;;5095361;28;20423;-76
2022/11/08 04:52:54;;;;;;;12.63;4.13;;;;;;;;;;5095220;28;20749;-77
2022/11/08 04:55:21;;;;;;;10.38;3.80;;;;;;;;;;5094308;28;20494;-77
2022/11/08 04:57:47;;;;;;;10.65;4.05;;;;;;;;;;5080558;28;20424;-76
2022/11/08 05:00:14;;;;;;;12.93;4.05;;;;;;;;;;5095086;28;20423;-76
2022/11/08 05:02:40;;;;;;;11.07;3.65;;;;;;;;;;5094218;28;20430;-77
2022/11/08 05:05:06;;;;;;;11.35;3.70;;;;;;;;;;5079462;28;20430;-76
2022/11/08 05:07:32;;;;;;;13.13;3.95;;;;;;;;;;5080190;28;20956;-77
2022/11/08 05:09:58;;;;;;;8.43;3.45;;;;;;;;;;5093234;28;20427;-77
2022/11/08 05:12:24;;;;;;;13.40;3.80;;;;;;;;;;5080392;28;20480;-77
2022/11/08 05:14:50;;;;;;;9.75;3.60;;;;;;;;;;5074042;28;20417;-77
2022/11/08 05:17:16;;;;;;;10.82;3.70;;;;;;;;;;5076433;28;20405;-77
2022/11/08 05:25:12;;;;;;;8.32;3.72;;;;;;;;;;5089516;28;20550;-77
2022/11/08 05:27:38;;;;;;;11.05;3.60;;;;;;;;;;5068313;28;20792;-77
2022/11/08 05:30:04;;;;;;;12.00;3.53;;;;;;;;;;5093767;28;20470;-78
2022/11/08 05:32:30;;;;;;;14.27;4.00;;;;;;;;;;5069302;28;20429;-77
2022/11/08 05:34:56;;;;;;;10.52;3.97;;;;;;;;;;5066121;28;20759;-78
2022/11/08 05:37:22;;;;;;;11.60;3.50;;;;;;;;;;5109863;28;20402;-77
2022/11/08 05:39:48;;;;;;;8.27;3.38;;;;;;;;;;5067091;28;20446;-77
2022/11/08 05:42:14;;;;;;;9.27;3.23;;;;;;;;;;5077779;28;20777;-77
2022/11/08 05:44:40;;;;;;;10.38;3.80;;;;;;;;;;5078785;28;20513;-77
2022/11/08 05:47:06;;;;;;;9.52;3.75;;;;;;;;;;5078185;28;20423;-77
2022/11/08 05:49:33;;;;;;;9.13;3.35;;;;;;;;;;5094569;28;20415;-77
2022/11/08 05:51:59;;;;;;;9.13;3.22;;;;;;;;;;5079132;28;20407;-77
2022/11/08 05:54:25;;;;;;;10.65;3.63;;;;;;;;;;5081914;28;20761;-76
2022/11/08 05:56:51;;;;;;;10.73;3.50;;;;;;;;;;5095776;28;20914;-77
2022/11/08 05:59:17;;;;;;;11.95;4.82;;;;;;;;;;5073976;28;20427;-77
2022/11/08 06:01:43;;;;;;;11.75;3.58;;;;;;;;;;5094695;28;20929;-77
2022/11/08 06:04:09;;;;;;;10.80;3.70;;;;;;;;;;5088340;28;21479;-77
2022/11/08 06:06:35;;;;;;;11.70;3.93;;;;;;;;;;5085450;28;20809;-77
2022/11/08 06:09:01;;;;;;;13.20;3.50;;;;;;;;;;5091430;28;20420;-77
2022/11/08 06:11:27;;;;;;;7.20;3.25;;;;;;;;;;5095190;28;20451;-77
2022/11/08 06:13:53;;;;;;;9.73;3.50;;;10.80;99.90;;;;;;5075907;28;20904;-77
2022/11/08 06:16:21;;;;;;;9.85;4.32;;;11.20;99.90;;;;;;5093542;28;20452;-76
2022/11/08 06:18:47;;;;;;;10.50;3.33;;;;;;;;;;5094409;28;20416;-77
2022/11/08 06:21:15;;;;;;;9.47;3.30;;;11.20;99.90;;;;;;5093471;28;20427;-77
2022/11/08 06:23:42;;;;;;;9.15;3.08;;;;;;;;;;5095139;28;20416;-77
2022/11/08 06:26:08;;;;;;;9.50;3.17;;;;;;;;;;5092159;28;20753;-77
2022/11/08 06:28:34;;;;;;;10.45;3.22;;;;;;;;;;5074590;28;20422;-77
2022/11/08 06:31:01;;;;;;;9.45;3.08;;;;;;;;;;5075624;28;20412;-78
2022/11/08 06:33:28;;;;;;;9.95;3.17;;;;;;;;;;5077108;28;20424;-77
2022/11/08 06:35:54;;;;;;;9.57;3.05;;;;;;;;;;5093100;28;20515;-78
2022/11/08 06:38:20;;;;;;;8.07;2.88;;;;;;;;;;5088096;28;20933;-77
2022/11/08 06:40:46;;;;;;;8.35;3.30;;;;;;;;;;5082695;28;20929;-77
2022/11/08 06:43:12;;;;;;;8.40;3.13;;;;;;;;;;5074436;28;20430;-77
2022/11/08 06:45:39;;;;;;;12.35;3.30;;;;;;;;;;5099535;28;20404;-78
2022/11/08 06:48:06;;;;;;;8.13;2.97;;;;;;;;;;5076489;28;20412;-77
2022/11/08 06:50:32;;;;;;;8.40;2.80;;;;;;;;;;5091644;28;20408;-77
2022/11/08 06:53:00;;;;;;;6.40;2.67;;;11.30;99.90;;;;;;5091225;28;20424;-78
2022/11/08 06:55:27;;;;;;;8.15;3.10;;;;;;;;;;5092523;28;20495;-78
2022/11/08 06:57:53;;;;;;;7.05;2.70;;;;;;;;;;5094761;28;20459;-77
2022/11/08 07:00:19;;;;;;;8.82;3.20;;;;;;;;;;5087750;28;20426;-78
2022/11/08 07:02:50;;;;;;;9.57;3.20;;;;;;;;;;5091244;28;20420;-78
2022/11/08 07:05:16;;;;;;;8.43;3.40;;;;;;;;;;5061712;28;20416;-78
2022/11/08 07:07:42;;;;;;;10.60;3.22;;;;;;;;;;5110825;28;20428;-79
2022/11/08 07:10:09;;;;;;;10.02;3.25;;;;;;;;;;5078428;28;20410;-79
2022/11/08 07:12:35;;;;;;;8.18;3.38;;;;;;;;;;5092698;28;20416;-81
2022/11/08 07:15:01;;;;;;;8.90;3.50;;;11.50;99.90;;;;;;5077101;28;20536;-81
2022/11/08 07:17:27;;;;;;;13.27;3.70;;;;;;;;;;5088771;28;20444;-80
2022/11/08 07:19:53;;;;;;;7.47;3.63;;;;;;;;;;5081287;28;20423;-81
2022/11/08 07:22:19;;;;;;;8.90;3.50;;;;;;;;;;5091203;28;20422;-81
2022/11/08 07:24:45;;;;;;;9.45;3.50;;;;;;;;;;5077494;28;20499;-81
2022/11/08 07:27:11;;;;;;;8.57;3.50;;;;;;;;;;5074460;28;20402;-81
2022/11/08 07:29:37;;;;;;;12.00;3.63;;;;;;;;;;5077001;28;20453;-81
2022/11/08 07:32:03;;;;;;;10.20;3.40;;;;;;;;;;5092112;28;20472;-81
2022/11/08 07:34:31;;;;;;;10.93;3.40;;;;;;;;;;5077960;28;20408;-81
2022/11/08 07:36:57;;;;;;;10.13;4.03;;;;;;;;;;5077696;28;20493;-81
2022/11/08 07:39:23;;;;;;;7.30;3.53;;;;;;;;;;5057081;28;20414;-81
2022/11/08 07:41:49;;;;;;;11.88;3.83;;;;;;;;;;5065807;28;20416;-82
2022/11/08 07:44:15;;;;;;;10.43;3.70;;;;;;;;;;5088655;28;20523;-81
2022/11/08 07:46:41;;;;;;;7.97;3.70;;;;;;;;;;5087491;28;20396;-80
2022/11/08 07:49:07;;;;;;;8.85;4.00;;;11.60;99.90;;;;;;5094116;28;20778;-81
2022/11/08 07:51:33;;;;;;;7.22;3.63;;;;;;;;;;5092874;28;20484;-80
2022/11/08 07:53:59;;;;;;;8.48;4.40;;;;;;;;;;5090240;28;20444;-80
2022/11/08 07:56:25;;;;;;;9.80;3.50;;;;;;;;;;5049225;28;20432;-81
2022/11/08 07:58:52;;;;;;;8.98;4.00;;;;;;;;;;5088128;28;20414;-81
2022/11/08 08:01:18;;;;;;;10.38;4.10;;;;;;;;;;5076570;28;20420;-80
2022/11/08 08:03:44;;;;;;;7.32;3.55;;;;;;;;;;5092097;28;20434;-80
2022/11/08 08:06:10;;;;;;;8.32;3.63;;;11.80;99.90;;;;;;5076631;28;20495;-81
2022/11/08 08:08:36;;;;;;;9.35;3.70;;;;;;;;;;5091542;28;20491;-81
2022/11/08 08:11:04;;;;;;;8.68;3.47;;;;;;;;;;5075912;28;20416;-80
2022/11/08 08:13:30;;;;;;;8.38;3.10;;;;;;;;;;5090022;28;20491;-81
2022/11/08 08:15:59;;;;;;;8.15;3.20;;;;;;;;;;5073330;28;20426;-81
2022/11/08 08:18:26;;;;;;;9.05;3.25;;;;;;;;;;5086668;28;20412;-81
2022/11/08 08:20:52;;;;;;;9.23;3.57;;;;;;;;;;5090422;28;20491;-80
2022/11/08 08:23:18;;;;;;;6.85;3.45;;;;;;;;;;5077210;28;20416;-80
2022/11/08 08:25:44;;;;;;;9.15;3.10;;;;;;;;;;5089844;28;20495;-81
2022/11/08 08:28:10;;;;;;;6.95;3.00;;;;;;;;;;5070152;28;20420;-80
2022/11/08 08:30:37;;;;;;;7.80;3.30;;;;;;;;;;5089774;28;20427;-79
2022/11/08 08:33:11;;;;;;;9.35;4.20;;;;;;;;;;5083297;28;20432;-81
2022/11/08 08:35:38;;;;;;;10.07;3.40;;;;;;;;;;5088032;28;20416;-81
2022/11/08 08:38:05;;;;;;;7.95;3.10;;;12.00;99.90;;;;;;5085321;28;20432;-80
2022/11/08 08:40:32;;;;;;;8.65;3.00;;;;;;;;;;5074540;28;20876;-79
2022/11/08 08:43:02;;;;;;;7.28;2.78;;;;;;;;;;5065446;28;20512;-80
2022/11/08 08:45:28;;;;;;;7.30;2.95;;;12.40;99.90;;;;;;5081420;28;20448;-80
2022/11/08 08:47:55;;;;;;;8.77;3.10;;;;;;;;;;5088785;28;20523;-80
2022/11/08 08:50:21;;;;;;;6.70;2.83;;;;;;;;;;5082346;28;20534;-81
2022/11/08 08:52:47;;;;;;;6.97;3.00;;;;;;;;;;5075296;28;20767;-79
2022/11/08 08:55:13;;;;;;;7.75;2.78;;;12.50;99.90;;;;;;5072355;28;20500;-79
2022/11/08 08:57:58;;;;;;;6.05;3.08;;;;;;;;;;5129478;27;20378;-80
2022/11/08 09:00:24;;;;;;;7.45;2.72;;;;;;;;;;5130855;27;20414;-78
2022/11/08 09:02:50;;;;;;;7.13;2.78;;;;;;;;;;5141289;27;20421;-79
2022/11/08 09:05:16;;;;;;;5.53;2.78;;;;;;;;;;5107547;28;20421;-80
2022/11/08 09:07:42;;;;;;;4.80;2.53;;;;;;;;;;5110079;28;20423;-81
2022/11/08 09:10:09;;;;;;;6.47;2.45;;;13.10;99.90;;;;;;5100090;28;20425;-80
2022/11/08 09:12:35;;;;;;;5.95;2.55;;;;;;;;;;5109851;28;20432;-81
2022/11/08 09:15:02;;;;;;;7.18;2.72;;;;;;;;;;5122263;27;20882;-80
2022/11/08 09:17:28;;;;;;;5.77;2.60;;;;;;;;;;5110319;28;20425;-82
2022/11/08 09:19:54;;;;;;;6.55;2.78;;;;;;;;;;5113056;28;20420;-81
2022/11/08 09:22:20;;;;;;;9.50;2.70;;;;;;;;;;5104888;28;20436;-80
2022/11/08 09:24:46;;;;;;;6.68;2.53;;;;;;;;;;5105260;28;20505;-79
2022/11/08 09:28:49;;;;;;;6.40;3.05;;;;;;;;;;5103789;27;20761;-82
2022/11/08 09:31:15;;;;;;;7.47;2.40;;;;;;;;;;5105798;28;20421;-83
2022/11/08 09:33:41;;;;;;;5.20;2.20;;;;;;;;;;5104182;28;20483;-81
2022/11/08 09:36:11;;;;;;;6.05;2.30;;;;;;;;;;5105282;28;20433;-80
2022/11/08 09:38:37;;;;;;;6.20;2.50;;;;;;;;;;5137235;27;20458;-81
2022/11/08 09:41:22;;;;;;;6.15;2.40;;;;;;;;;;5089201;28;20432;-81
2022/11/08 09:43:48;;;;;;;5.88;2.40;;;;;;;;;;5139398;27;20798;-81
2022/11/08 09:46:18;;;;;;;5.82;2.20;;;;;;;;;;5089519;28;20475;-81
2022/11/08 09:48:44;;;;;;;7.05;2.50;;;;;;;;;;5105229;28;20419;-81
2022/11/08 09:51:17;;;;;;;6.30;2.63;;;13.80;99.90;;;;;;5143077;27;20428;-82
2022/11/08 09:53:46;;;;;;;5.63;2.30;;;;;;;;;;5121380;27;20417;-82
2022/11/08 09:56:24;;;;;;;6.45;2.30;;;;;;;;;;5107055;28;20504;-80
2022/11/08 10:00:05;;;;;;;4.03;2.20;;;;;;;;;;5090350;27;20387;-81
2022/11/08 10:02:32;;;;;;;4.90;2.10;;;13.50;99.90;;;;;;5085175;28;20535;-81
2022/11/08 10:05:10;;;;;;;4.73;2.00;;;13.20;99.90;;;;;;5078851;28;20512;-79
2022/11/08 10:07:45;;;;;;;6.97;2.38;;;;;;;;;;5087805;28;20430;-81
2022/11/08 10:10:15;;;;;;;5.03;2.15;;;;;;;;;;5064426;28;20426;-81
2022/11/08 10:12:58;;;;;;;5.28;2.20;;;13.70;99.90;;;;;;5091070;28;20451;-81
2022/11/08 10:17:09;;;;;;;4.60;2.30;;;;;;;;;;5090707;27;20374;-81
2022/11/08 10:19:35;;;;;;;4.90;2.17;;;;;;;;;;5072133;28;20938;-80
2022/11/08 10:22:18;;;;;;;4.30;2.10;;;13.50;99.90;;;;;;5088320;28;20919;-82
2022/11/08 10:24:53;;;;;;;4.97;2.58;;;;;;;;;;5073179;28;20462;-82
2022/11/08 10:27:25;;;;;;;4.57;2.30;;;;;;;;;;5081811;28;20476;-82
2022/11/08 10:30:30;;;;;;;6.57;2.17;;;;;;;;;;5147742;27;20376;-80
2022/11/08 10:32:56;;;;;;;3.65;1.90;;;13.80;99.90;;;;;;5108929;28;20767;-82
2022/11/08 10:35:41;;;;;;;4.23;2.00;;;13.80;99.90;;;;;;5127723;27;20514;-81
2022/11/08 10:38:21;;;;;;;6.80;2.20;;;;;;;;;;5127839;28;20414;-82
2022/11/08 10:40:56;;;;;;;5.05;2.30;;;;;;;;;;5114234;27;20520;-82
2022/11/08 10:43:31;;;;;;;5.03;2.20;;;13.60;99.90;;;;;;5124355;27;20426;-82
2022/11/08 10:45:57;;;;;;;5.10;2.40;;;;;;;;;;5140183;27;20421;-85
2022/11/08 10:48:23;;;;;;;5.10;2.45;;;;;;;;;;5162212;27;20434;-81
2022/11/08 10:50:51;;;;;;;6.45;2.40;;;13.70;99.90;;;;;;5113958;27;20418;-83
2022/11/08 10:53:20;;;;;;;5.50;2.38;;;;;;;;;;5120165;27;20426;-82
2022/11/08 10:55:49;;;;;;;5.00;2.20;;;13.60;99.90;;;;;;5115789;28;20462;-83
2022/11/08 10:58:54;;;;;;;4.90;2.25;;;13.60;99.90;;;;;;5127229;27;20411;-81
2022/11/08 11:01:22;;;;;;;5.53;2.40;;;13.60;99.90;;;;;;5006116;28;20434;-81
2022/11/08 11:03:51;;;;;;;4.30;2.10;;;13.80;99.90;;;;;;5028631;28;20429;-82
2022/11/08 11:06:20;;;;;;;6.93;2.30;;;;;;;;;;5054283;27;20411;-82
2022/11/08 11:08:53;;;;;;;4.32;1.95;;;13.70;99.90;;;;;;5116861;27;21040;-80
2022/11/08 11:11:32;;;;;;;4.40;1.98;;;;;;;;;;5166035;27;20744;-80
2022/11/08 11:14:10;;;;;;;4.65;1.90;;;;;;;;;;5155130;27;20417;-81
2022/11/08 11:16:36;;;;;;;4.88;2.10;;;;;;;;;;5120955;27;20561;-82
2022/11/08 11:19:04;;;;;;;7.28;2.20;;;;;;;;;;5134879;27;20465;-81
2022/11/08 11:21:36;;;;;;;6.00;2.13;;;;;;;;;;5103934;28;20760;-80
2022/11/08 11:24:07;;;;;;;5.88;2.20;;;;;;;;;;5135181;27;20419;-80
2022/11/08 11:28:27;;;;;;;5.40;1.90;;;;;;;;;;5112347;27;1985242;-81
2022/11/08 11:31:01;;;;;;;5.28;2.15;;;;;;;;;;5146000;27;20420;-81
2022/11/08 11:35:51;;;;;;;4.63;2.10;;;13.90;99.90;;;;;;5113501;27;1975373;-81
2022/11/08 11:38:22;;;;;;;8.23;2.10;;;;;;;;;;5138368;27;20421;-81
2022/11/08 11:40:50;;;;;;;4.68;2.25;;;;;;;;;;5132098;27;20835;-82
2022/11/08 11:43:22;;;;;;;5.45;2.00;;;;;;;;;;5128149;27;20495;-81
2022/11/08 11:45:52;;;;;;;5.67;2.33;;;;;;;;;;5152704;27;20465;-80
2022/11/08 11:48:25;;;;;;;5.83;2.00;;;14.10;99.90;;;;;;5151947;27;20489;-82
2022/11/08 11:50:51;;;;;;;4.13;2.13;;;;;;;;;;5133982;27;20404;-82
2022/11/08 11:53:31;;;;;;;5.35;2.10;;;14.20;99.90;;;;;;5142193;27;20707;-82
2022/11/08 11:56:36;;;;;;;6.25;2.17;;;14.20;99.90;;;;;;5150633;27;20417;-83
2022/11/08 11:59:02;;;;;;;6.10;2.17;;;;;;;;;;5117082;27;20452;-81
2022/11/08 12:01:39;;;;;;;4.68;1.98;;;14.20;99.90;;;;;;5143530;27;20474;-82
2022/11/08 12:04:24;;;;;;;5.03;2.03;;;;;;;;;;5126582;27;20453;-81
2022/11/08 12:07:04;;;;;;;5.60;2.10;;;14.40;99.90;;;;;;5133730;27;20492;-81
2022/11/08 12:09:30;;;;;;;6.15;2.20;;;;;;;;;;5149048;27;20428;-82
2022/11/08 12:12:02;;;;;;;4.30;2.03;;;;;;;;;;5149999;27;20416;-82
2022/11/08 12:14:44;;;;;;;6.17;2.10;;;14.30;99.90;;;;;;5150680;27;20497;-82
2022/11/08 12:17:23;;;;;;;5.88;2.10;;;;;;;;;;5151379;27;20910;-82
2022/11/08 12:19:55;;;;;;;5.38;1.88;;;;;;;;;;5133299;27;20414;-81
2022/11/08 12:22:21;;;;;;;6.63;2.00;;;;;;;;;;5127914;27;20410;-81
2022/11/08 12:24:47;;;;;;;5.38;2.08;;;;;;;;;;5133616;27;20409;-80
2022/11/08 12:27:42;;;;;;;6.67;2.33;;;14.60;99.90;;;;;;5111124;27;20410;-81
2022/11/08 12:30:10;;;;;;;4.93;2.00;;;;;;;;;;5123811;27;20425;-80
2022/11/08 12:32:51;;;;;;;5.30;1.95;;;;;;;;;;5130819;27;20418;-82
2022/11/08 12:35:50;;;;;;;4.65;1.92;;;14.60;99.90;;;;;;5113849;27;20426;-81
2022/11/08 12:38:28;;;;;;;5.38;1.85;;;;;;;;;;5129876;27;20410;-81
2022/11/08 12:41:06;;;;;;;3.88;2.00;;;;;;;;;;5107978;27;20432;-81
2022/11/08 12:43:36;;;;;;;4.88;2.10;;;;;;;;;;5113666;27;20410;-79
2022/11/08 12:46:15;;;;;;;7.40;1.92;;;14.50;99.90;;;;;;5122569;27;20466;-81
2022/11/08 12:48:50;;;;;;;5.80;2.00;;;;;;;;;;5116904;27;20426;-80
2022/11/08 12:51:22;;;;;;;5.72;1.90;;;14.60;99.90;;;;;;5116591;27;20418;-80
2022/11/08 12:53:57;;;;;;;5.72;2.08;;;;;;;;;;5111177;27;20479;-80
2022/11/08 12:56:29;;;;;;;4.13;1.80;;;;;;;;;;5116023;27;20414;-79
2022/11/08 12:58:56;;;;;;;4.50;2.00;;;;;;;;;;5116899;27;20411;-80
2022/11/08 13:01:22;;;;;;;5.15;2.15;;;14.90;99.90;;;;;;5116744;27;20485;-81
2022/11/08 13:04:30;;;;;;;7.13;2.03;;;14.50;99.90;;;;;;5116247;27;20479;-81
2022/11/08 13:07:06;;;;;;;6.60;2.05;;;;;;;;;;5114613;27;20418;-81
2022/11/08 13:10:05;;;;;;;5.78;1.80;;;14.80;99.90;;;;;;5112043;27;20443;-82
2022/11/08 13:13:01;;;;;;;6.00;1.90;;;15.20;99.90;;;;;;5114149;27;20443;-81
2022/11/08 13:15:28;;;;;;;4.53;2.03;;;;;;;;;;5110237;27;20419;-81
2022/11/08 13:18:24;;;;;;;5.63;1.80;;;;;;;;;;5111749;27;20418;-81
2022/11/08 13:20:50;;;;;;;4.07;1.92;;;;;;;;;;5119210;27;20441;-81
2022/11/08 13:23:27;;;;;;;4.75;1.90;;;;;;;;;;5116987;27;20739;-80
2022/11/08 13:25:53;;;;;;;6.05;2.03;;;;;;;;;;5114561;27;20751;-80
2022/11/08 13:28:35;;;;;;;6.03;2.30;;;;;;;;;;5095693;28;20396;-81
2022/11/08 13:31:16;;;;;;;4.72;1.98;;;;;;;;;;5110494;27;20501;-81
2022/11/08 13:34:06;;;;;;;5.25;1.85;;;;;;;;;;5111389;28;20420;-81
2022/11/08 13:36:40;;;;;;;5.00;1.70;;;15.00;99.90;;;;;;5085690;28;20415;-82
2022/11/08 13:39:30;;;;;;;4.30;1.75;;;15.10;99.90;;;;;;5107882;27;20465;-81
2022/11/08 13:42:15;;;;;;;4.43;1.80;;;;;;;;;;5088223;27;20450;-81
2022/11/08 13:44:59;;;;;;;4.25;1.75;;;15.00;99.90;;;;;;5098431;27;20414;-81
2022/11/08 13:47:33;;;;;;;5.13;1.90;;;14.90;99.90;;;;;;5095471;28;20433;-80
2022/11/08 13:50:27;;;;;;;5.00;1.90;;;14.90;99.90;;;;;;5106830;27;20445;-81
2022/11/08 13:53:18;;;;;;;5.07;1.98;;;14.90;99.90;;;;;;5107831;27;20414;-81
2022/11/08 13:55:58;;;;;;;5.95;2.20;;;;;;;;;;5096913;27;20447;-81
2022/11/08 13:58:33;;;;;;;4.65;2.10;;;;;;;;;;5111971;27;20419;-81
2022/11/08 14:01:20;;;;;;;5.63;2.07;;;14.70;99.90;;;;;;5113519;27;20459;-80
2022/11/08 14:03:46;;;;;;;4.33;2.00;;;;;;;;;;5112054;27;20418;-80
2022/11/08 14:06:16;;;;;;;4.78;1.92;;;;;;;;;;5090648;27;20442;-81
2022/11/08 14:08:54;;;;;;;5.13;1.98;;;;;;;;;;5120964;27;20420;-80
2022/11/08 14:11:43;;;;;;;3.47;1.88;;;;;;;;;;5107593;27;20422;-81
2022/11/08 14:14:22;;;;;;;6.15;1.92;;;;;;;;;;5109348;27;20442;-81
2022/11/08 14:17:29;;;;;;;5.80;2.00;;;14.70;99.90;;;;;;5104850;27;20452;-81
2022/11/08 14:19:57;;;;;;;5.47;2.07;;;;;;;;;;5105344;27;20421;-80
2022/11/08 14:22:25;;;;;;;5.47;2.00;;;14.70;99.90;;;;;;5115312;27;20398;-81
2022/11/08 14:24:54;;;;;;;5.72;2.03;;;14.70;99.90;;;;;;5098470;27;20426;-79
2022/11/08 14:27:36;;;;;;;5.32;1.90;;;14.80;99.90;;;;;;5090509;27;20421;-80
2022/11/08 14:30:03;;;;;;;5.20;2.00;;;14.50;99.90;;;;;;5086942;27;20421;-80
2022/11/08 14:32:29;;;;;;;6.35;2.10;;;;;;;;;;5114107;27;20399;-79
2022/11/08 14:35:10;;;;;;;3.70;1.80;;;;;;;;;;5088971;28;20932;-80
2022/11/08 14:37:36;;;;;;;6.50;1.90;;;;;;;;;;5109768;27;20402;-79
2022/11/08 14:40:03;;;;;;;5.22;1.85;;;;;;;;;;5112516;27;20421;-80
2022/11/08 14:42:30;;;;;;;6.15;2.28;;;;;;;;;;5091060;27;20419;-80
2022/11/08 14:44:57;;;;;;;5.10;1.98;;;14.70;99.90;;;;;;5111462;27;20418;-80
2022/11/08 14:47:25;;;;;;;3.95;2.03;;;;;;;;;;5112581;27;20501;-79
2022/11/08 14:49:51;;;;;;;6.35;2.53;;;;;;;;;;5104382;27;20956;-81
2022/11/08 14:52:24;;;;;;;4.97;1.90;;;;;;;;;;5092087;27;20813;-80